sensor_id;sensor_type;location;lat;lon;timestamp;temperature;humidity
52899;DHT22;38763;53.096;6.062;2023-05-20T00:02:04;10.90;99.90
52899;DHT22;38763;53.096;6.062;2023-05-20T00:04:30;10.90;99.90
52899;DHT22;38763;53.096;6.062;2023-05-20T00:06:56;10.90;99.90
52899;DHT22;38763;53.096;6.062;2023-05-20T00:09:21;10.90;99.90
52899;DHT22;38763;53.096;6.062;2023-05-20T00:11:47;10.90;99.90
52899;DHT22;38763;53.096;6.062;2023-05-20T00:14:13;10.80;99.90
52899;DHT22;38763;53.096;6.062;2023-05-20T00:16:38;10.90;99.90
52899;DHT22;38763;53.096;6.062;2023-05-20T00:19:04;10.80;99.90
52899;DHT22;38763;53.096;6.062;2023-05-20T00:21:30;10.90;99.90
52899;DHT22;38763;53.096;6.062;2023-05-20T00:23:56;10.80;99.90
52899;DHT22;38763;53.096;6.062;2023-05-20T00:26:22;10.80;99.90
52899;DHT22;38763;53.096;6.062;2023-05-20T00:28:48;10.90;99.90
52899;DHT22;38763;53.096;6.062;2023-05-20T00:31:13;10.70;99.90
52899;DHT22;38763;53.096;6.062;2023-05-20T00:33:39;10.70;99.90
52899;DHT22;38763;53.096;6.062;2023-05-20T00:36:05;10.70;99.90
52899;DHT22;38763;53.096;6.062;2023-05-20T00:38:31;10.70;99.90
52899;DHT22;38763;53.096;6.062;2023-05-20T00:40:56;10.70;99.90
52899;DHT22;38763;53.096;6.062;2023-05-20T00:43:22;10.70;99.90
52899;DHT22;38763;53.096;6.062;2023-05-20T00:45:50;10.70;99.90
52899;DHT22;38763;53.096;6.062;2023-05-20T00:48:17;10.70;99.90
52899;DHT22;38763;53.096;6.062;2023-05-20T00:50:43;10.80;99.90
52899;DHT22;38763;53.096;6.062;2023-05-20T00:53:09;10.70;99.90
52899;DHT22;38763;53.096;6.062;2023-05-20T00:55:35;10.70;99.90
52899;DHT22;38763;53.096;6.062;2023-05-20T00:58:01;10.60;99.90
52899;DHT22;38763;53.096;6.062;2023-05-20T01:00:26;10.60;99.90
52899;DHT22;38763;53.096;6.062;2023-05-20T01:02:54;10.60;99.90
52899;DHT22;38763;53.096;6.062;2023-05-20T01:05:20;10.60;99.90
52899;DHT22;38763;53.096;6.062;2023-05-20T01:07:45;10.60;99.90
52899;DHT22;38763;53.096;6.062;2023-05-20T01:10:11;10.50;99.90
52899;DHT22;38763;53.096;6.062;2023-05-20T01:12:43;10.50;99.90
52899;DHT22;38763;53.096;6.062;2023-05-20T01:15:11;10.50;99.90
52899;DHT22;38763;53.096;6.062;2023-05-20T01:17:43;10.50;99.90
52899;DHT22;38763;53.096;6.062;2023-05-20T01:20:12;10.50;99.90
52899;DHT22;38763;53.096;6.062;2023-05-20T01:22:55;10.50;99.90
52899;DHT22;38763;53.096;6.062;2023-05-20T01:25:21;10.50;99.90
52899;DHT22;38763;53.096;6.062;2023-05-20T01:27:49;10.50;99.90
52899;DHT22;38763;53.096;6.062;2023-05-20T01:30:16;10.40;99.90
52899;DHT22;38763;53.096;6.062;2023-05-20T01:32:51;10.40;99.90
52899;DHT22;38763;53.096;6.062;2023-05-20T01:35:19;10.40;99.90
52899;DHT22;38763;53.096;6.062;2023-05-20T01:37:46;10.40;99.90
52899;DHT22;38763;53.096;6.062;2023-05-20T01:40:14;10.30;99.90
52899;DHT22;38763;53.096;6.062;2023-05-20T01:42:42;10.40;99.90
52899;DHT22;38763;53.096;6.062;2023-05-20T01:45:08;10.40;99.90
52899;DHT22;38763;53.096;6.062;2023-05-20T01:47:34;10.30;99.90
52899;DHT22;38763;53.096;6.062;2023-05-20T01:50:00;10.40;99.90
52899;DHT22;38763;53.096;6.062;2023-05-20T01:52:25;10.30;99.90
52899;DHT22;38763;53.096;6.062;2023-05-20T01:54:51;10.20;99.90
52899;DHT22;38763;53.096;6.062;2023-05-20T01:57:21;10.20;99.90
52899;DHT22;38763;53.096;6.062;2023-05-20T01:59:47;10.20;99.90
52899;DHT22;38763;53.096;6.062;2023-05-20T02:02:13;10.20;99.90
52899;DHT22;38763;53.096;6.062;2023-05-20T02:04:39;10.20;99.90
52899;DHT22;38763;53.096;6.062;2023-05-20T02:07:06;10.10;99.90
52899;DHT22;38763;53.096;6.062;2023-05-20T02:09:32;10.10;99.90
52899;DHT22;38763;53.096;6.062;2023-05-20T02:11:58;10.10;99.90
52899;DHT22;38763;53.096;6.062;2023-05-20T02:14:23;10.10;99.90
52899;DHT22;38763;53.096;6.062;2023-05-20T02:16:49;10.10;99.90
52899;DHT22;38763;53.096;6.062;2023-05-20T02:19:15;10.00;99.90
52899;DHT22;38763;53.096;6.062;2023-05-20T02:21:47;10.00;99.90
52899;DHT22;38763;53.096;6.062;2023-05-20T02:24:13;10.00;99.90
52899;DHT22;38763;53.096;6.062;2023-05-20T02:26:39;9.90;99.90
52899;DHT22;38763;53.096;6.062;2023-05-20T02:29:04;9.90;99.90
52899;DHT22;38763;53.096;6.062;2023-05-20T02:31:30;9.90;99.90
52899;DHT22;38763;53.096;6.062;2023-05-20T02:33:56;9.90;99.90
52899;DHT22;38763;53.096;6.062;2023-05-20T02:36:21;9.90;99.90
52899;DHT22;38763;53.096;6.062;2023-05-20T02:38:47;9.90;99.90
52899;DHT22;38763;53.096;6.062;2023-05-20T02:41:13;9.90;99.90
52899;DHT22;38763;53.096;6.062;2023-05-20T02:43:39;9.90;99.90
52899;DHT22;38763;53.096;6.062;2023-05-20T02:46:05;9.90;99.90
52899;DHT22;38763;53.096;6.062;2023-05-20T02:48:31;10.00;99.90
52899;DHT22;38763;53.096;6.062;2023-05-20T02:50:58;9.90;99.90
52899;DHT22;38763;53.096;6.062;2023-05-20T02:53:24;9.90;99.90
52899;DHT22;38763;53.096;6.062;2023-05-20T02:55:50;9.80;99.90
52899;DHT22;38763;53.096;6.062;2023-05-20T02:58:16;9.80;99.90
52899;DHT22;38763;53.096;6.062;2023-05-20T03:00:42;9.80;99.90
52899;DHT22;38763;53.096;6.062;2023-05-20T03:03:08;9.80;99.90
52899;DHT22;38763;53.096;6.062;2023-05-20T03:05:38;9.80;99.90
52899;DHT22;38763;53.096;6.062;2023-05-20T03:08:08;9.80;99.90
52899;DHT22;38763;53.096;6.062;2023-05-20T03:10:35;9.90;99.90
52899;DHT22;38763;53.096;6.062;2023-05-20T03:13:01;9.80;99.90
52899;DHT22;38763;53.096;6.062;2023-05-20T03:15:26;9.80;99.90
52899;DHT22;38763;53.096;6.062;2023-05-20T03:17:52;9.80;99.90
52899;DHT22;38763;53.096;6.062;2023-05-20T03:20:18;9.80;99.90
52899;DHT22;38763;53.096;6.062;2023-05-20T03:22:44;9.90;99.90
52899;DHT22;38763;53.096;6.062;2023-05-20T03:25:10;9.80;99.90
52899;DHT22;38763;53.096;6.062;2023-05-20T03:27:36;9.80;99.90
52899;DHT22;38763;53.096;6.062;2023-05-20T03:30:03;9.70;99.90
52899;DHT22;38763;53.096;6.062;2023-05-20T03:32:29;9.70;99.90
52899;DHT22;38763;53.096;6.062;2023-05-20T03:34:55;9.80;99.90
52899;DHT22;38763;53.096;6.062;2023-05-20T03:37:22;9.80;99.90
52899;DHT22;38763;53.096;6.062;2023-05-20T03:39:48;9.80;99.90
52899;DHT22;38763;53.096;6.062;2023-05-20T03:42:13;9.80;99.90
52899;DHT22;38763;53.096;6.062;2023-05-20T03:44:39;9.70;99.90
52899;DHT22;38763;53.096;6.062;2023-05-20T03:47:05;9.80;99.90
52899;DHT22;38763;53.096;6.062;2023-05-20T03:49:31;9.80;99.90
52899;DHT22;38763;53.096;6.062;2023-05-20T03:51:56;9.70;99.90
52899;DHT22;38763;53.096;6.062;2023-05-20T03:54:22;9.90;99.90
52899;DHT22;38763;53.096;6.062;2023-05-20T03:56:48;9.70;99.90
52899;DHT22;38763;53.096;6.062;2023-05-20T03:59:14;9.70;99.90
52899;DHT22;38763;53.096;6.062;2023-05-20T04:01:39;9.70;99.90
52899;DHT22;38763;53.096;6.062;2023-05-20T04:04:05;9.70;99.90
52899;DHT22;38763;53.096;6.062;2023-05-20T04:06:31;9.80;99.90
52899;DHT22;38763;53.096;6.062;2023-05-20T04:08:57;9.80;99.90
52899;DHT22;38763;53.096;6.062;2023-05-20T04:11:23;9.80;99.90
52899;DHT22;38763;53.096;6.062;2023-05-20T04:13:48;9.80;99.90
52899;DHT22;38763;53.096;6.062;2023-05-20T04:16:14;9.80;99.90
52899;DHT22;38763;53.096;6.062;2023-05-20T04:18:39;9.80;99.90
52899;DHT22;38763;53.096;6.062;2023-05-20T04:21:05;9.90;99.90
52899;DHT22;38763;53.096;6.062;2023-05-20T04:23:32;9.90;99.90
52899;DHT22;38763;53.096;6.062;2023-05-20T04:25:58;9.90;99.90
52899;DHT22;38763;53.096;6.062;2023-05-20T04:28:27;9.90;99.90
52899;DHT22;38763;53.096;6.062;2023-05-20T04:30:59;9.90;99.90
52899;DHT22;38763;53.096;6.062;2023-05-20T04:33:27;9.90;99.90
52899;DHT22;38763;53.096;6.062;2023-05-20T04:35:52;9.90;99.90
52899;DHT22;38763;53.096;6.062;2023-05-20T04:38:25;9.90;99.90
52899;DHT22;38763;53.096;6.062;2023-05-20T04:40:58;9.90;99.90
52899;DHT22;38763;53.096;6.062;2023-05-20T04:43:27;9.90;99.90
52899;DHT22;38763;53.096;6.062;2023-05-20T04:45:56;9.90;99.90
52899;DHT22;38763;53.096;6.062;2023-05-20T04:48:22;10.10;99.90
52899;DHT22;38763;53.096;6.062;2023-05-20T04:50:48;10.10;99.90
52899;DHT22;38763;53.096;6.062;2023-05-20T04:53:20;10.10;99.90
52899;DHT22;38763;53.096;6.062;2023-05-20T04:55:48;10.20;99.90
52899;DHT22;38763;53.096;6.062;2023-05-20T04:58:14;10.20;99.90
52899;DHT22;38763;53.096;6.062;2023-05-20T05:00:42;10.20;99.90
52899;DHT22;38763;53.096;6.062;2023-05-20T05:03:08;10.20;99.90
52899;DHT22;38763;53.096;6.062;2023-05-20T05:05:34;10.20;99.90
52899;DHT22;38763;53.096;6.062;2023-05-20T05:08:04;10.30;99.90
52899;DHT22;38763;53.096;6.062;2023-05-20T05:10:30;10.30;99.90
52899;DHT22;38763;53.096;6.062;2023-05-20T05:12:56;10.30;99.90
52899;DHT22;38763;53.096;6.062;2023-05-20T05:15:22;10.30;99.90
52899;DHT22;38763;53.096;6.062;2023-05-20T05:17:48;10.40;99.90
52899;DHT22;38763;53.096;6.062;2023-05-20T05:20:14;10.40;99.90
52899;DHT22;38763;53.096;6.062;2023-05-20T05:22:40;10.50;99.90
52899;DHT22;38763;53.096;6.062;2023-05-20T05:25:09;10.60;99.90
52899;DHT22;38763;53.096;6.062;2023-05-20T05:27:35;10.60;99.90
52899;DHT22;38763;53.096;6.062;2023-05-20T05:30:02;10.70;99.90
52899;DHT22;38763;53.096;6.062;2023-05-20T05:32:28;10.80;99.90
52899;DHT22;38763;53.096;6.062;2023-05-20T05:34:54;10.90;99.90
52899;DHT22;38763;53.096;6.062;2023-05-20T05:37:20;11.00;99.90
52899;DHT22;38763;53.096;6.062;2023-05-20T05:39:46;11.10;99.90
52899;DHT22;38763;53.096;6.062;2023-05-20T05:42:11;11.20;99.90
52899;DHT22;38763;53.096;6.062;2023-05-20T05:44:37;11.30;99.90
52899;DHT22;38763;53.096;6.062;2023-05-20T05:47:03;11.40;99.90
52899;DHT22;38763;53.096;6.062;2023-05-20T05:49:30;11.50;99.90
52899;DHT22;38763;53.096;6.062;2023-05-20T05:51:55;11.60;99.90
52899;DHT22;38763;53.096;6.062;2023-05-20T05:54:21;11.80;99.90
52899;DHT22;38763;53.096;6.062;2023-05-20T05:56:46;12.00;99.90
52899;DHT22;38763;53.096;6.062;2023-05-20T05:59:12;12.10;99.90
52899;DHT22;38763;53.096;6.062;2023-05-20T06:01:38;12.30;99.90
52899;DHT22;38763;53.096;6.062;2023-05-20T06:04:03;12.30;99.90
52899;DHT22;38763;53.096;6.062;2023-05-20T06:06:30;12.20;99.90
52899;DHT22;38763;53.096;6.062;2023-05-20T06:08:56;12.20;99.90
52899;DHT22;38763;53.096;6.062;2023-05-20T06:11:22;12.20;99.90
52899;DHT22;38763;53.096;6.062;2023-05-20T06:13:49;12.10;99.90
52899;DHT22;38763;53.096;6.062;2023-05-20T06:16:14;12.20;99.90
52899;DHT22;38763;53.096;6.062;2023-05-20T06:18:41;12.20;99.90
52899;DHT22;38763;53.096;6.062;2023-05-20T06:21:07;12.20;99.90
52899;DHT22;38763;53.096;6.062;2023-05-20T06:23:33;12.20;99.90
52899;DHT22;38763;53.096;6.062;2023-05-20T06:25:59;12.30;99.90
52899;DHT22;38763;53.096;6.062;2023-05-20T06:28:26;12.30;99.90
52899;DHT22;38763;53.096;6.062;2023-05-20T06:30:53;12.40;99.90
52899;DHT22;38763;53.096;6.062;2023-05-20T06:33:22;12.50;99.90
52899;DHT22;38763;53.096;6.062;2023-05-20T06:35:52;12.70;99.90
52899;DHT22;38763;53.096;6.062;2023-05-20T06:38:18;12.70;99.90
52899;DHT22;38763;53.096;6.062;2023-05-20T06:40:44;12.80;99.90
52899;DHT22;38763;53.096;6.062;2023-05-20T06:43:09;12.90;99.90
52899;DHT22;38763;53.096;6.062;2023-05-20T06:45:35;12.90;99.90
52899;DHT22;38763;53.096;6.062;2023-05-20T06:48:01;13.10;99.90
52899;DHT22;38763;53.096;6.062;2023-05-20T06:50:26;13.10;99.90
52899;DHT22;38763;53.096;6.062;2023-05-20T06:52:54;13.20;99.90
52899;DHT22;38763;53.096;6.062;2023-05-20T06:55:20;13.40;99.90
52899;DHT22;38763;53.096;6.062;2023-05-20T06:57:46;13.50;99.90
52899;DHT22;38763;53.096;6.062;2023-05-20T07:00:12;13.60;99.90
52899;DHT22;38763;53.096;6.062;2023-05-20T07:02:41;13.70;99.90
52899;DHT22;38763;53.096;6.062;2023-05-20T07:05:07;13.80;99.90
52899;DHT22;38763;53.096;6.062;2023-05-20T07:07:33;13.90;99.90
52899;DHT22;38763;53.096;6.062;2023-05-20T07:09:59;14.00;99.90
52899;DHT22;38763;53.096;6.062;2023-05-20T07:12:24;14.10;99.90
52899;DHT22;38763;53.096;6.062;2023-05-20T07:14:50;14.20;99.90
52899;DHT22;38763;53.096;6.062;2023-05-20T07:17:16;14.30;99.90
52899;DHT22;38763;53.096;6.062;2023-05-20T07:19:41;14.40;99.90
52899;DHT22;38763;53.096;6.062;2023-05-20T07:22:07;14.80;99.90
52899;DHT22;38763;53.096;6.062;2023-05-20T07:24:35;15.60;99.90
52899;DHT22;38763;53.096;6.062;2023-05-20T07:27:01;16.70;99.90
52899;DHT22;38763;53.096;6.062;2023-05-20T07:29:26;17.70;99.90
52899;DHT22;38763;53.096;6.062;2023-05-20T07:31:52;18.50;99.90
52899;DHT22;38763;53.096;6.062;2023-05-20T07:34:18;19.30;99.90
52899;DHT22;38763;53.096;6.062;2023-05-20T07:36:44;19.80;99.80
52899;DHT22;38763;53.096;6.062;2023-05-20T07:39:09;20.00;98.20
52899;DHT22;38763;53.096;6.062;2023-05-20T07:41:36;20.10;97.30
52899;DHT22;38763;53.096;6.062;2023-05-20T07:44:04;19.90;96.60
52899;DHT22;38763;53.096;6.062;2023-05-20T07:46:29;19.30;97.10
52899;DHT22;38763;53.096;6.062;2023-05-20T07:48:55;20.00;97.40
52899;DHT22;38763;53.096;6.062;2023-05-20T07:51:21;20.50;96.10
52899;DHT22;38763;53.096;6.062;2023-05-20T07:53:47;20.70;95.70
52899;DHT22;38763;53.096;6.062;2023-05-20T07:56:13;21.20;95.30
52899;DHT22;38763;53.096;6.062;2023-05-20T07:58:43;21.50;94.90
52899;DHT22;38763;53.096;6.062;2023-05-20T08:01:15;22.20;93.50
52899;DHT22;38763;53.096;6.062;2023-05-20T08:03:41;21.70;94.10
52899;DHT22;38763;53.096;6.062;2023-05-20T08:06:07;22.20;94.00
52899;DHT22;38763;53.096;6.062;2023-05-20T08:08:32;21.80;93.80
52899;DHT22;38763;53.096;6.062;2023-05-20T08:10:59;21.90;93.80
52899;DHT22;38763;53.096;6.062;2023-05-20T08:13:26;22.00;92.60
52899;DHT22;38763;53.096;6.062;2023-05-20T08:15:53;22.20;93.00
52899;DHT22;38763;53.096;6.062;2023-05-20T08:18:19;22.60;93.00
52899;DHT22;38763;53.096;6.062;2023-05-20T08:20:44;22.10;93.20
52899;DHT22;38763;53.096;6.062;2023-05-20T08:23:10;21.30;93.10
52899;DHT22;38763;53.096;6.062;2023-05-20T08:25:36;21.50;93.80
52899;DHT22;38763;53.096;6.062;2023-05-20T08:28:03;22.10;92.40
52899;DHT22;38763;53.096;6.062;2023-05-20T08:30:30;21.90;92.30
52899;DHT22;38763;53.096;6.062;2023-05-20T08:32:56;22.10;92.80
52899;DHT22;38763;53.096;6.062;2023-05-20T08:35:22;21.80;93.30
52899;DHT22;38763;53.096;6.062;2023-05-20T08:37:48;22.40;93.20
52899;DHT22;38763;53.096;6.062;2023-05-20T08:40:14;22.90;92.00
52899;DHT22;38763;53.096;6.062;2023-05-20T08:42:42;22.30;92.00
52899;DHT22;38763;53.096;6.062;2023-05-20T08:45:10;22.70;92.00
52899;DHT22;38763;53.096;6.062;2023-05-20T08:47:39;22.70;91.90
52899;DHT22;38763;53.096;6.062;2023-05-20T08:50:05;22.20;91.60
52899;DHT22;38763;53.096;6.062;2023-05-20T08:52:33;22.40;91.40
52899;DHT22;38763;53.096;6.062;2023-05-20T08:54:59;22.50;91.10
52899;DHT22;38763;53.096;6.062;2023-05-20T08:57:27;22.50;91.40
52899;DHT22;38763;53.096;6.062;2023-05-20T08:59:54;22.70;91.90
52899;DHT22;38763;53.096;6.062;2023-05-20T09:02:21;22.30;91.30
52899;DHT22;38763;53.096;6.062;2023-05-20T09:04:47;22.30;92.40
52899;DHT22;38763;53.096;6.062;2023-05-20T09:07:13;22.80;92.20
52899;DHT22;38763;53.096;6.062;2023-05-20T09:09:38;22.70;91.80
52899;DHT22;38763;53.096;6.062;2023-05-20T09:12:05;22.90;92.00
52899;DHT22;38763;53.096;6.062;2023-05-20T09:14:31;22.40;91.20
52899;DHT22;38763;53.096;6.062;2023-05-20T09:16:57;22.40;92.10
52899;DHT22;38763;53.096;6.062;2023-05-20T09:19:23;22.10;92.20
52899;DHT22;38763;53.096;6.062;2023-05-20T09:21:52;22.20;91.90
52899;DHT22;38763;53.096;6.062;2023-05-20T09:24:23;22.10;92.30
52899;DHT22;38763;53.096;6.062;2023-05-20T09:26:50;21.40;92.60
52899;DHT22;38763;53.096;6.062;2023-05-20T09:29:15;21.90;92.90
52899;DHT22;38763;53.096;6.062;2023-05-20T09:31:41;22.00;93.10
52899;DHT22;38763;53.096;6.062;2023-05-20T09:34:06;22.00;93.20
52899;DHT22;38763;53.096;6.062;2023-05-20T09:36:34;22.10;92.10
52899;DHT22;38763;53.096;6.062;2023-05-20T09:39:02;22.50;92.90
52899;DHT22;38763;53.096;6.062;2023-05-20T09:41:37;22.00;92.50
52899;DHT22;38763;53.096;6.062;2023-05-20T09:44:04;22.40;93.80
52899;DHT22;38763;53.096;6.062;2023-05-20T09:46:32;22.20;92.50
52899;DHT22;38763;53.096;6.062;2023-05-20T09:48:58;22.20;92.40
52899;DHT22;38763;53.096;6.062;2023-05-20T09:51:25;22.60;95.20
52899;DHT22;38763;53.096;6.062;2023-05-20T09:53:52;22.80;92.50
52899;DHT22;38763;53.096;6.062;2023-05-20T09:56:19;22.90;94.80
52899;DHT22;38763;53.096;6.062;2023-05-20T09:58:46;22.50;92.40
52899;DHT22;38763;53.096;6.062;2023-05-20T10:01:14;22.60;92.40
52899;DHT22;38763;53.096;6.062;2023-05-20T10:03:39;22.30;92.30
52899;DHT22;38763;53.096;6.062;2023-05-20T10:09:10;22.40;91.80
52899;DHT22;38763;53.096;6.062;2023-05-20T10:12:06;22.50;93.00
52899;DHT22;38763;53.096;6.062;2023-05-20T10:19:58;22.00;94.00
52899;DHT22;38763;53.096;6.062;2023-05-20T10:22:29;22.10;92.00
52899;DHT22;38763;53.096;6.062;2023-05-20T10:25:03;22.40;92.80
52899;DHT22;38763;53.096;6.062;2023-05-20T10:27:41;22.30;92.80
52899;DHT22;38763;53.096;6.062;2023-05-20T10:30:15;22.30;92.80
52899;DHT22;38763;53.096;6.062;2023-05-20T10:32:50;22.30;92.60
52899;DHT22;38763;53.096;6.062;2023-05-20T10:35:21;21.90;92.90
52899;DHT22;38763;53.096;6.062;2023-05-20T10:37:47;21.20;93.40
52899;DHT22;38763;53.096;6.062;2023-05-20T10:40:14;21.40;93.60
52899;DHT22;38763;53.096;6.062;2023-05-20T10:42:40;21.10;93.90
52899;DHT22;38763;53.096;6.062;2023-05-20T10:45:07;20.90;94.30
52899;DHT22;38763;53.096;6.062;2023-05-20T10:47:34;20.50;94.50
52899;DHT22;38763;53.096;6.062;2023-05-20T10:50:00;20.60;94.50
52899;DHT22;38763;53.096;6.062;2023-05-20T10:52:37;20.90;94.90
52899;DHT22;38763;53.096;6.062;2023-05-20T10:55:03;20.80;93.90
52899;DHT22;38763;53.096;6.062;2023-05-20T10:57:30;20.40;94.30
52899;DHT22;38763;53.096;6.062;2023-05-20T10:59:56;20.50;94.70
52899;DHT22;38763;53.096;6.062;2023-05-20T11:02:24;20.30;94.60
52899;DHT22;38763;53.096;6.062;2023-05-20T11:04:55;20.60;94.30
52899;DHT22;38763;53.096;6.062;2023-05-20T11:07:30;20.60;94.60
52899;DHT22;38763;53.096;6.062;2023-05-20T11:09:57;20.60;94.80
52899;DHT22;38763;53.096;6.062;2023-05-20T11:12:24;20.60;95.80
52899;DHT22;38763;53.096;6.062;2023-05-20T11:14:50;20.90;95.30
52899;DHT22;38763;53.096;6.062;2023-05-20T11:17:17;20.60;93.40
52899;DHT22;38763;53.096;6.062;2023-05-20T11:19:43;20.90;95.50
52899;DHT22;38763;53.096;6.062;2023-05-20T11:22:09;21.10;94.20
52899;DHT22;38763;53.096;6.062;2023-05-20T11:24:34;21.00;94.20
52899;DHT22;38763;53.096;6.062;2023-05-20T11:27:01;20.60;94.40
52899;DHT22;38763;53.096;6.062;2023-05-20T11:29:27;20.40;94.90
52899;DHT22;38763;53.096;6.062;2023-05-20T11:31:53;20.10;95.70
52899;DHT22;38763;53.096;6.062;2023-05-20T11:34:22;20.10;97.10
52899;DHT22;38763;53.096;6.062;2023-05-20T11:36:55;19.90;98.10
52899;DHT22;38763;53.096;6.062;2023-05-20T11:39:21;19.50;99.10
52899;DHT22;38763;53.096;6.062;2023-05-20T11:41:46;19.50;99.20
52899;DHT22;38763;53.096;6.062;2023-05-20T11:44:12;19.80;99.20
52899;DHT22;38763;53.096;6.062;2023-05-20T11:46:42;20.00;99.60
52899;DHT22;38763;53.096;6.062;2023-05-20T11:49:08;20.00;98.90
52899;DHT22;38763;53.096;6.062;2023-05-20T11:51:36;19.90;98.90
52899;DHT22;38763;53.096;6.062;2023-05-20T11:54:04;19.70;98.90
52899;DHT22;38763;53.096;6.062;2023-05-20T11:56:34;19.70;99.70
52899;DHT22;38763;53.096;6.062;2023-05-20T11:59:05;19.60;99.60
52899;DHT22;38763;53.096;6.062;2023-05-20T12:01:34;19.80;99.50
52899;DHT22;38763;53.096;6.062;2023-05-20T12:04:05;19.80;99.30
52899;DHT22;38763;53.096;6.062;2023-05-20T12:06:32;20.00;99.70
52899;DHT22;38763;53.096;6.062;2023-05-20T12:09:00;19.90;99.00
52899;DHT22;38763;53.096;6.062;2023-05-20T12:11:29;19.90;98.90
52899;DHT22;38763;53.096;6.062;2023-05-20T12:13:55;19.70;99.20
52899;DHT22;38763;53.096;6.062;2023-05-20T12:16:20;19.90;99.50
52899;DHT22;38763;53.096;6.062;2023-05-20T12:18:46;20.20;99.00
52899;DHT22;38763;53.096;6.062;2023-05-20T12:21:11;20.20;98.70
52899;DHT22;38763;53.096;6.062;2023-05-20T12:23:37;20.40;99.90
52899;DHT22;38763;53.096;6.062;2023-05-20T12:26:03;20.20;98.60
52899;DHT22;38763;53.096;6.062;2023-05-20T12:28:30;19.90;98.50
52899;DHT22;38763;53.096;6.062;2023-05-20T12:30:56;20.00;99.40
52899;DHT22;38763;53.096;6.062;2023-05-20T12:33:22;20.20;99.20
52899;DHT22;38763;53.096;6.062;2023-05-20T12:35:47;20.00;99.30
52899;DHT22;38763;53.096;6.062;2023-05-20T12:38:13;19.70;99.90
52899;DHT22;38763;53.096;6.062;2023-05-20T12:40:39;19.70;99.30
52899;DHT22;38763;53.096;6.062;2023-05-20T12:43:05;19.90;99.90
52899;DHT22;38763;53.096;6.062;2023-05-20T12:45:31;20.20;99.80
52899;DHT22;38763;53.096;6.062;2023-05-20T12:47:57;20.00;99.20
52899;DHT22;38763;53.096;6.062;2023-05-20T12:50:24;20.00;99.40
52899;DHT22;38763;53.096;6.062;2023-05-20T12:52:50;20.10;99.80
52899;DHT22;38763;53.096;6.062;2023-05-20T12:55:15;20.10;99.80
52899;DHT22;38763;53.096;6.062;2023-05-20T12:57:45;20.30;99.80
52899;DHT22;38763;53.096;6.062;2023-05-20T13:00:12;20.30;99.30
52899;DHT22;38763;53.096;6.062;2023-05-20T13:02:40;20.50;99.40
52899;DHT22;38763;53.096;6.062;2023-05-20T13:05:06;20.50;99.30
52899;DHT22;38763;53.096;6.062;2023-05-20T13:07:32;20.20;98.80
52899;DHT22;38763;53.096;6.062;2023-05-20T13:09:58;20.10;99.80
52899;DHT22;38763;53.096;6.062;2023-05-20T13:12:24;20.00;98.70
52899;DHT22;38763;53.096;6.062;2023-05-20T13:14:50;20.20;99.10
52899;DHT22;38763;53.096;6.062;2023-05-20T13:17:16;20.40;99.40
52899;DHT22;38763;53.096;6.062;2023-05-20T13:19:42;20.30;98.60
52899;DHT22;38763;53.096;6.062;2023-05-20T13:22:10;20.10;98.50
52899;DHT22;38763;53.096;6.062;2023-05-20T13:24:36;20.10;98.90
52899;DHT22;38763;53.096;6.062;2023-05-20T13:27:02;20.40;99.30
52899;DHT22;38763;53.096;6.062;2023-05-20T13:29:28;20.50;99.40
52899;DHT22;38763;53.096;6.062;2023-05-20T13:31:53;20.50;98.40
52899;DHT22;38763;53.096;6.062;2023-05-20T13:34:19;20.40;98.70
52899;DHT22;38763;53.096;6.062;2023-05-20T13:36:45;20.10;98.90
52899;DHT22;38763;53.096;6.062;2023-05-20T13:39:13;19.90;99.50
52899;DHT22;38763;53.096;6.062;2023-05-20T13:41:39;19.80;99.80
52899;DHT22;38763;53.096;6.062;2023-05-20T13:44:05;20.00;99.90
52899;DHT22;38763;53.096;6.062;2023-05-20T13:46:31;20.10;99.80
52899;DHT22;38763;53.096;6.062;2023-05-20T13:48:57;20.00;99.70
52899;DHT22;38763;53.096;6.062;2023-05-20T13:51:22;20.10;99.90
52899;DHT22;38763;53.096;6.062;2023-05-20T13:53:48;20.40;99.90
52899;DHT22;38763;53.096;6.062;2023-05-20T13:56:14;20.50;99.20
52899;DHT22;38763;53.096;6.062;2023-05-20T13:58:39;20.50;98.80
52899;DHT22;38763;53.096;6.062;2023-05-20T14:01:05;20.60;99.50
52899;DHT22;38763;53.096;6.062;2023-05-20T14:03:32;20.50;98.90
52899;DHT22;38763;53.096;6.062;2023-05-20T14:05:59;20.50;98.90
52899;DHT22;38763;53.096;6.062;2023-05-20T14:08:25;20.40;98.40
52899;DHT22;38763;53.096;6.062;2023-05-20T14:10:51;20.10;99.50
52899;DHT22;38763;53.096;6.062;2023-05-20T14:13:23;20.10;99.90
52899;DHT22;38763;53.096;6.062;2023-05-20T14:15:49;20.10;99.50
52899;DHT22;38763;53.096;6.062;2023-05-20T14:18:18;19.80;99.80
52899;DHT22;38763;53.096;6.062;2023-05-20T14:20:44;19.60;99.30
52899;DHT22;38763;53.096;6.062;2023-05-20T14:23:10;19.50;99.40
52899;DHT22;38763;53.096;6.062;2023-05-20T14:25:36;19.40;99.90
52899;DHT22;38763;53.096;6.062;2023-05-20T14:28:02;19.40;99.60
52899;DHT22;38763;53.096;6.062;2023-05-20T14:30:28;19.40;99.70
52899;DHT22;38763;53.096;6.062;2023-05-20T14:32:54;19.50;99.90
52899;DHT22;38763;53.096;6.062;2023-05-20T14:35:20;19.50;99.90
52899;DHT22;38763;53.096;6.062;2023-05-20T14:37:45;19.50;99.90
52899;DHT22;38763;53.096;6.062;2023-05-20T14:40:11;19.60;99.90
52899;DHT22;38763;53.096;6.062;2023-05-20T14:42:37;19.50;99.90
52899;DHT22;38763;53.096;6.062;2023-05-20T14:45:04;19.80;99.90
52899;DHT22;38763;53.096;6.062;2023-05-20T14:47:29;19.90;99.90
52899;DHT22;38763;53.096;6.062;2023-05-20T14:49:55;19.90;99.80
52899;DHT22;38763;53.096;6.062;2023-05-20T14:52:21;19.90;99.90
52899;DHT22;38763;53.096;6.062;2023-05-20T14:54:47;19.70;99.30
52899;DHT22;38763;53.096;6.062;2023-05-20T14:57:13;19.50;99.60
52899;DHT22;38763;53.096;6.062;2023-05-20T14:59:40;19.50;99.70
52899;DHT22;38763;53.096;6.062;2023-05-20T15:02:06;19.50;99.90
52899;DHT22;38763;53.096;6.062;2023-05-20T15:04:32;19.60;99.90
52899;DHT22;38763;53.096;6.062;2023-05-20T15:06:58;19.60;99.20
52899;DHT22;38763;53.096;6.062;2023-05-20T15:09:24;19.60;99.30
52899;DHT22;38763;53.096;6.062;2023-05-20T15:11:50;19.40;99.40
52899;DHT22;38763;53.096;6.062;2023-05-20T15:14:15;19.60;99.80
52899;DHT22;38763;53.096;6.062;2023-05-20T15:16:41;19.60;99.60
52899;DHT22;38763;53.096;6.062;2023-05-20T15:19:09;19.60;99.20
52899;DHT22;38763;53.096;6.062;2023-05-20T15:21:35;19.40;99.00
52899;DHT22;38763;53.096;6.062;2023-05-20T15:24:01;19.40;99.30
52899;DHT22;38763;53.096;6.062;2023-05-20T15:26:29;19.60;99.10
52899;DHT22;38763;53.096;6.062;2023-05-20T15:28:54;19.50;98.90
52899;DHT22;38763;53.096;6.062;2023-05-20T15:31:22;19.40;99.50
52899;DHT22;38763;53.096;6.062;2023-05-20T15:33:47;19.30;99.60
52899;DHT22;38763;53.096;6.062;2023-05-20T15:36:13;19.40;99.90
52899;DHT22;38763;53.096;6.062;2023-05-20T15:38:39;19.40;99.50